createdAt,value
2023-05-09T00:00:13.174Z,73.12
2023-05-09T00:03:22.335Z,73.00
2023-05-09T00:06:28.081Z,73.76
2023-05-09T00:09:31.562Z,73.85
2023-05-09T00:12:37.188Z,73.79
2023-05-09T00:15:40.896Z,74.15
2023-05-09T00:18:44.734Z,74.72
2023-05-09T00:21:48.437Z,74.23
2023-05-09T00:24:52.635Z,74.45
2023-05-09T00:27:57.866Z,73.22
2023-05-09T00:31:01.694Z,73.25
2023-05-09T00:34:05.287Z,73.47
2023-05-09T00:37:08.874Z,72.87
2023-05-09T00:40:15.024Z,73.25
2023-05-09T00:43:22.764Z,74.05
2023-05-09T00:46:26.836Z,73.11
2023-05-09T00:49:31.185Z,72.90
2023-05-09T00:52:35.900Z,73.42
2023-05-09T00:55:40.091Z,73.05
2023-05-09T00:58:45.594Z,72.74
2023-05-09T01:01:49.360Z,72.73
2023-05-09T01:04:53.486Z,72.35
2023-05-09T01:11:37.698Z,72.53
2023-05-09T01:14:52.949Z,71.25
2023-05-09T01:18:01.370Z,71.64
2023-05-09T01:21:11.741Z,71.45
2023-05-09T01:24:41.336Z,72.29
2023-05-09T01:27:55.108Z,72.00
2023-05-09T01:31:00.859Z,71.83
2023-05-09T01:34:07.717Z,72.08
2023-05-09T01:37:14.447Z,72.24
2023-05-09T01:40:21.585Z,71.32
2023-05-09T01:43:29.180Z,72.01
2023-05-09T01:46:35.494Z,71.41
2023-05-09T01:49:41.386Z,71.69
2023-05-09T01:52:48.670Z,71.96
2023-05-09T01:55:53.266Z,72.02
2023-05-09T01:58:59.262Z,72.62
2023-05-09T02:02:05.212Z,73.05
2023-05-09T02:05:15.805Z,72.32
2023-05-09T02:08:22.346Z,72.64
2023-05-09T02:11:25.982Z,73.03
2023-05-09T02:14:33.070Z,72.88
2023-05-09T02:17:38.186Z,72.31
2023-05-09T02:20:41.697Z,73.29
2023-05-09T02:23:46.945Z,72.97
2023-05-09T02:26:50.884Z,73.16
2023-05-09T02:29:58.492Z,73.34
2023-05-09T02:33:11.297Z,73.42
2023-05-09T02:36:17.796Z,73.02
2023-05-09T02:39:21.385Z,73.41
2023-05-09T02:42:30.174Z,73.06
2023-05-09T02:45:37.593Z,73.01
2023-05-09T02:48:42.798Z,74.31
2023-05-09T02:51:46.270Z,75.01
2023-05-09T02:54:49.902Z,74.64
2023-05-09T02:58:05.271Z,75.51
2023-05-09T03:01:16.244Z,74.70
2023-05-09T03:04:21.242Z,75.11
2023-05-09T03:07:24.804Z,74.91
2023-05-09T03:10:28.266Z,75.39
2023-05-09T03:13:31.970Z,74.24
2023-05-09T03:16:35.801Z,74.59
2023-05-09T03:19:41.932Z,74.90
2023-05-09T03:22:45.494Z,74.52
2023-05-09T03:25:49.290Z,74.93
2023-05-09T03:28:53.384Z,74.44
2023-05-09T03:31:57.069Z,73.75
2023-05-09T03:35:02.232Z,73.85
2023-05-09T03:38:06.034Z,73.67
2023-05-09T03:41:10.114Z,73.71
2023-05-09T03:44:14.833Z,73.80
2023-05-09T03:47:18.524Z,73.39
2023-05-09T03:50:23.399Z,73.82
2023-05-09T03:53:28.112Z,74.30
2023-05-09T03:56:32.030Z,73.92
2023-05-09T03:59:35.868Z,74.06
2023-05-09T04:02:40.014Z,74.02
2023-05-09T04:05:45.369Z,74.29
2023-05-09T04:08:56.738Z,74.35
2023-05-09T04:12:00.425Z,74.53
2023-05-09T04:15:04.121Z,73.69
2023-05-09T04:18:08.548Z,73.85
2023-05-09T04:21:13.940Z,73.78
2023-05-09T04:24:18.607Z,73.25
2023-05-09T04:27:24.752Z,73.30
2023-05-09T04:30:28.809Z,73.23
2023-05-09T04:33:33.488Z,72.78
2023-05-09T04:36:40.642Z,71.89
2023-05-09T04:39:44.636Z,71.87
2023-05-09T04:42:55.055Z,71.23
2023-05-09T04:46:02.684Z,70.92
2023-05-09T04:49:06.591Z,70.96
2023-05-09T04:52:11.571Z,69.76
2023-05-09T04:55:15.763Z,69.90
2023-05-09T04:58:22.620Z,69.97
2023-05-09T05:01:27.021Z,70.47
2023-05-09T05:04:32.772Z,70.15
2023-05-09T05:07:38.808Z,69.80
2023-05-09T05:10:42.608Z,69.71
2023-05-09T05:13:48.959Z,69.59
2023-05-09T05:16:54.747Z,69.95
2023-05-09T05:20:00.221Z,69.72
2023-05-09T05:23:07.193Z,68.45
2023-05-09T05:26:11.006Z,68.14
2023-05-09T05:29:15.103Z,67.76
2023-05-09T05:32:18.883Z,66.96
2023-05-09T05:35:23.485Z,65.93
2023-05-09T05:38:29.643Z,66.45
2023-05-09T05:41:35.346Z,65.67
2023-05-09T05:44:41.389Z,65.69
2023-05-09T05:47:45.799Z,64.60
2023-05-09T05:50:49.688Z,64.73
2023-05-09T05:53:57.669Z,63.34
2023-05-09T05:57:02.505Z,63.72
2023-05-09T06:00:09.542Z,62.86
2023-05-09T06:03:17.900Z,62.85
2023-05-09T06:06:28.566Z,61.15
2023-05-09T06:09:33.985Z,61.66
2023-05-09T06:12:37.407Z,60.63
2023-05-09T06:15:41.224Z,58.60
2023-05-09T06:18:45.274Z,59.33
2023-05-09T06:21:49.161Z,58.73
2023-05-09T06:24:54.308Z,58.28
2023-05-09T06:27:58.181Z,57.77
2023-05-09T06:31:02.231Z,57.19
2023-05-09T06:34:06.428Z,57.33
2023-05-09T06:37:10.218Z,56.53
2023-05-09T06:40:15.514Z,56.58
2023-05-09T06:43:19.440Z,56.17
2023-05-09T06:46:23.388Z,55.34
2023-05-09T06:49:27.499Z,55.75
2023-05-09T06:52:31.370Z,55.70
2023-05-09T06:55:36.518Z,54.69
2023-05-09T06:58:40.356Z,54.31
2023-05-09T07:01:43.932Z,54.71
2023-05-09T07:04:47.303Z,53.97
2023-05-09T07:07:51.215Z,53.55
2023-05-09T07:10:56.484Z,54.48
2023-05-09T07:14:00.589Z,51.73
2023-05-09T07:17:21.309Z,52.24
2023-05-09T07:20:26.567Z,52.03
2023-05-09T07:23:29.991Z,53.17
2023-05-09T07:26:36.890Z,50.98
2023-05-09T07:29:40.442Z,51.58
2023-05-09T07:32:44.042Z,51.08
2023-05-09T07:35:47.593Z,50.51
2023-05-09T07:38:53.024Z,50.43
2023-05-09T07:41:57.930Z,50.74
2023-05-09T07:45:01.617Z,49.98
2023-05-09T07:48:05.672Z,48.69
2023-05-09T07:51:09.421Z,47.30
2023-05-09T07:54:12.988Z,46.60
2023-05-09T07:57:18.366Z,46.20
2023-05-09T08:00:24.116Z,45.95
2023-05-09T08:03:28.226Z,47.60
2023-05-09T08:06:31.943Z,47.02
2023-05-09T08:09:35.638Z,47.52
2023-05-09T08:12:41.012Z,46.19
2023-05-09T08:15:44.587Z,46.85
2023-05-09T08:18:48.465Z,46.35
2023-05-09T08:21:57.812Z,47.28
2023-05-09T08:25:01.399Z,46.03
2023-05-09T08:28:07.101Z,47.05
2023-05-09T08:31:11.076Z,46.11
2023-05-09T08:34:14.672Z,43.45
2023-05-09T08:37:18.381Z,43.77
2023-05-09T08:40:22.518Z,44.90
2023-05-09T08:43:30.046Z,44.71
2023-05-09T08:46:46.961Z,44.35
2023-05-09T08:49:52.927Z,44.53
2023-05-09T08:52:56.751Z,43.45
2023-05-09T08:56:01.405Z,44.28
2023-05-09T08:59:07.198Z,43.20
2023-05-09T09:02:14.739Z,45.68
2023-05-09T09:05:40.129Z,44.06
2023-05-09T09:08:47.268Z,44.54
2023-05-09T09:11:51.013Z,42.98
2023-05-09T09:14:58.240Z,44.11
2023-05-09T09:18:08.146Z,42.54
2023-05-09T09:21:14.575Z,43.10
2023-05-09T09:24:23.692Z,44.56
2023-05-09T09:27:27.427Z,44.32
2023-05-09T09:30:32.706Z,43.06
2023-05-09T09:33:37.654Z,43.17
2023-05-09T09:36:41.882Z,42.42
2023-05-09T09:39:55.680Z,41.02
2023-05-09T09:43:01.813Z,40.97
2023-05-09T09:46:07.227Z,41.71
2023-05-09T09:49:11.453Z,39.82
2023-05-09T09:52:24.904Z,40.18
2023-05-09T09:55:30.341Z,40.49
2023-05-09T09:58:35.465Z,39.75
2023-05-09T10:01:55.886Z,40.73
2023-05-09T10:05:08.138Z,41.51
2023-05-09T10:08:11.745Z,38.37
2023-05-09T10:11:16.656Z,39.33
2023-05-09T10:14:21.229Z,38.75
2023-05-09T10:17:27.616Z,38.92
2023-05-09T10:20:32.006Z,37.04
2023-05-09T10:23:39.815Z,37.55
2023-05-09T10:26:47.816Z,37.82
2023-05-09T10:29:58.921Z,38.26
2023-05-09T10:33:06.035Z,37.99
2023-05-09T10:36:10.912Z,38.10
2023-05-09T10:39:15.191Z,36.98
2023-05-09T10:42:18.894Z,37.52
2023-05-09T10:45:24.981Z,36.58
2023-05-09T10:48:30.319Z,36.71
2023-05-09T10:51:34.831Z,36.52
2023-05-09T10:54:38.866Z,35.32
2023-05-09T10:57:42.449Z,35.62
2023-05-09T11:00:46.847Z,35.40
2023-05-09T11:04:00.162Z,34.17
2023-05-09T11:07:03.888Z,34.73
2023-05-09T11:10:11.663Z,35.46
2023-05-09T11:13:19.231Z,36.13
2023-05-09T11:16:22.790Z,35.56
2023-05-09T11:19:38.974Z,35.20
2023-05-09T11:22:44.710Z,33.76
2023-05-09T11:25:49.016Z,34.02
2023-05-09T11:28:56.906Z,34.78
2023-05-09T11:32:07.950Z,33.11
2023-05-09T11:35:15.649Z,34.39
2023-05-09T11:38:23.185Z,33.72
2023-05-09T11:41:27.662Z,33.07
2023-05-09T11:44:33.804Z,33.58
2023-05-09T11:47:38.271Z,33.49
2023-05-09T11:50:43.190Z,33.48
2023-05-09T11:53:47.158Z,32.37
2023-05-09T11:56:50.896Z,31.38
2023-05-09T11:59:54.599Z,33.21
2023-05-09T12:02:58.167Z,32.36
2023-05-09T12:06:03.039Z,32.16
2023-05-09T12:09:06.838Z,33.37
2023-05-09T12:12:12.497Z,31.91
2023-05-09T12:15:17.030Z,33.41
2023-05-09T12:18:20.970Z,34.19
2023-05-09T12:21:25.749Z,31.96
2023-05-09T12:24:30.807Z,32.51
2023-05-09T12:27:36.019Z,33.44
2023-05-09T12:30:39.860Z,33.74
2023-05-09T12:33:43.507Z,33.07
2023-05-09T12:36:51.085Z,33.55
2023-05-09T12:40:05.156Z,31.85
2023-05-09T12:43:08.944Z,31.29
2023-05-09T12:46:12.449Z,31.79
2023-05-09T12:49:21.894Z,32.15
2023-05-09T12:52:27.374Z,31.85
2023-05-09T12:55:31.900Z,31.49
2023-05-09T12:58:35.659Z,32.61
2023-05-09T13:01:39.069Z,31.74
2023-05-09T13:04:42.599Z,32.16
2023-05-09T13:07:49.544Z,32.34
2023-05-09T13:11:00.709Z,31.32
2023-05-09T13:14:11.830Z,31.30
2023-05-09T13:17:15.924Z,33.09
2023-05-09T13:20:20.121Z,32.64
2023-05-09T13:23:25.037Z,32.87
2023-05-09T13:26:28.677Z,31.59
2023-05-09T13:29:32.341Z,31.49
2023-05-09T13:32:36.797Z,31.66
2023-05-09T13:35:40.761Z,31.54
2023-05-09T13:38:45.899Z,31.07
2023-05-09T13:41:51.415Z,30.62
2023-05-09T13:44:55.778Z,29.68
2023-05-09T13:47:59.373Z,32.61
2023-05-09T13:51:03.652Z,30.83
2023-05-09T13:54:12.790Z,32.39
2023-05-09T13:57:16.531Z,31.20
2023-05-09T14:00:23.479Z,32.98
2023-05-09T14:03:27.638Z,31.04
2023-05-09T14:06:31.175Z,31.81
2023-05-09T14:09:42.417Z,32.69
2023-05-09T14:12:47.300Z,31.01
2023-05-09T14:15:53.334Z,30.84
2023-05-09T14:18:57.786Z,30.31
2023-05-09T14:22:01.168Z,33.06
2023-05-09T14:25:06.541Z,32.87
2023-05-09T14:28:10.892Z,32.06
2023-05-09T14:31:15.354Z,32.75
2023-05-09T14:34:20.463Z,33.38
2023-05-09T14:37:24.864Z,32.04
2023-05-09T14:40:32.224Z,34.01
2023-05-09T14:43:36.102Z,31.55
2023-05-09T14:46:39.840Z,32.07
2023-05-09T14:49:43.512Z,34.16
2023-05-09T14:52:47.007Z,31.14
2023-05-09T14:55:52.318Z,32.07
2023-05-09T14:58:55.972Z,32.90
2023-05-09T15:01:59.559Z,32.95
2023-05-09T15:05:03.980Z,33.04
2023-05-09T15:08:08.174Z,32.26
2023-05-09T15:11:13.416Z,32.30
2023-05-09T15:14:17.531Z,32.66
2023-05-09T15:17:21.208Z,33.08
2023-05-09T15:20:24.716Z,34.43
2023-05-09T15:23:29.120Z,33.15
2023-05-09T15:26:34.319Z,32.51
2023-05-09T15:29:37.870Z,32.98
2023-05-09T15:32:41.615Z,32.99
2023-05-09T15:35:45.595Z,33.49
2023-05-09T15:38:49.889Z,32.54
2023-05-09T15:41:54.819Z,33.75
2023-05-09T15:44:58.519Z,34.05
2023-05-09T15:48:02.143Z,33.94
2023-05-09T15:51:06.350Z,33.58
2023-05-09T15:54:10.589Z,33.39
2023-05-09T15:57:16.903Z,34.04
2023-05-09T16:00:20.704Z,34.81
2023-05-09T16:03:25.117Z,34.29
2023-05-09T16:06:29.601Z,35.53
2023-05-09T16:09:33.509Z,34.33
2023-05-09T16:12:38.931Z,34.68
2023-05-09T16:15:42.695Z,35.01
2023-05-09T16:18:46.314Z,34.96
2023-05-09T16:21:50.321Z,34.49
2023-05-09T16:24:54.545Z,35.14
2023-05-09T16:27:59.521Z,36.12
2023-05-09T16:31:04.986Z,35.72
2023-05-09T16:34:08.677Z,36.52
2023-05-09T16:37:12.577Z,36.56
2023-05-09T16:40:16.878Z,35.84
2023-05-09T16:43:22.259Z,36.09
2023-05-09T16:46:25.929Z,36.16
2023-05-09T16:49:29.737Z,36.93
2023-05-09T16:52:33.433Z,37.58
2023-05-09T16:55:37.553Z,37.25
2023-05-09T16:58:45.573Z,37.55
2023-05-09T17:01:49.563Z,37.21
2023-05-09T17:04:53.427Z,38.16
2023-05-09T17:07:57.255Z,38.59
2023-05-09T17:11:00.985Z,37.55
2023-05-09T17:14:06.260Z,38.46
2023-05-09T17:17:13.142Z,38.67
2023-05-09T17:20:20.183Z,39.38
2023-05-09T17:23:23.845Z,38.98
2023-05-09T17:26:28.036Z,39.38
2023-05-09T17:29:33.271Z,39.93
2023-05-09T17:32:36.932Z,40.00
2023-05-09T17:35:40.733Z,40.54
2023-05-09T17:38:44.336Z,40.37
2023-05-09T17:41:48.117Z,40.98
2023-05-09T17:44:53.383Z,40.91
2023-05-09T17:47:57.117Z,39.57
2023-05-09T17:51:01.028Z,41.05
2023-05-09T17:54:05.740Z,40.88
2023-05-09T17:57:09.628Z,41.88
2023-05-09T18:00:16.608Z,41.80
2023-05-09T18:03:20.848Z,41.22
2023-05-09T18:06:24.588Z,41.36
2023-05-09T18:09:28.321Z,42.27
2023-05-09T18:12:36.893Z,42.11
2023-05-09T18:15:42.375Z,42.38
2023-05-09T18:18:46.065Z,42.34
2023-05-09T18:21:53.207Z,42.63
2023-05-09T18:24:57.053Z,42.58
2023-05-09T18:28:00.792Z,43.06
2023-05-09T18:31:06.425Z,42.69
2023-05-09T18:34:10.467Z,43.07
2023-05-09T18:37:14.401Z,43.48
2023-05-09T18:40:18.589Z,43.70
2023-05-09T18:43:22.453Z,43.96
2023-05-09T18:46:28.075Z,44.14
2023-05-09T18:49:31.841Z,44.04
2023-05-09T18:52:35.714Z,44.65
2023-05-09T18:55:39.257Z,45.99
2023-05-09T18:58:42.841Z,45.72
2023-05-09T19:01:47.807Z,45.98
2023-05-09T19:04:51.796Z,45.24
2023-05-09T19:07:55.344Z,45.39
2023-05-09T19:10:58.961Z,45.76
2023-05-09T19:14:02.626Z,45.22
2023-05-09T19:17:08.165Z,45.53
2023-05-09T19:20:13.901Z,46.09
2023-05-09T19:23:17.734Z,46.31
2023-05-09T19:26:22.190Z,46.12
2023-05-09T19:29:25.802Z,46.13
2023-05-09T19:32:30.863Z,46.16
2023-05-09T19:35:34.421Z,45.98
2023-05-09T19:38:37.989Z,46.21
2023-05-09T19:41:41.890Z,46.75
2023-05-09T19:44:46.720Z,46.95
2023-05-09T19:47:52.082Z,46.29
2023-05-09T19:50:58.345Z,47.06
2023-05-09T19:54:01.874Z,46.87
2023-05-09T19:57:06.950Z,47.26
2023-05-09T20:00:11.550Z,46.38
2023-05-09T20:03:17.665Z,47.59
2023-05-09T20:06:21.298Z,46.23
2023-05-09T20:09:25.286Z,47.13
2023-05-09T20:12:30.240Z,48.29
2023-05-09T20:15:35.042Z,47.90
2023-05-09T20:18:40.286Z,48.30
2023-05-09T20:21:43.877Z,48.78
2023-05-09T20:24:47.331Z,47.45
2023-05-09T20:27:51.030Z,48.53
2023-05-09T20:30:54.614Z,48.06
2023-05-09T20:34:00.454Z,48.57
2023-05-09T20:37:04.299Z,49.15
2023-05-09T20:40:09.350Z,49.43
2023-05-09T20:43:12.885Z,49.47
2023-05-09T20:46:16.515Z,48.94
2023-05-09T20:49:21.558Z,49.32
2023-05-09T20:52:24.947Z,49.88
2023-05-09T20:55:28.415Z,49.38
2023-05-09T20:58:34.820Z,48.91
2023-05-09T21:01:40.313Z,48.89
2023-05-09T21:04:45.297Z,49.64
2023-05-09T21:07:48.861Z,49.46
2023-05-09T21:10:54.441Z,49.88
2023-05-09T21:13:57.950Z,49.97
2023-05-09T21:17:01.611Z,50.12
2023-05-09T21:20:07.956Z,50.58
2023-05-09T21:23:11.876Z,50.60
2023-05-09T21:26:15.486Z,50.56
2023-05-09T21:29:18.916Z,50.93
2023-05-09T21:32:22.358Z,51.57
2023-05-09T21:35:27.450Z,51.70
2023-05-09T21:38:31.113Z,52.29
2023-05-09T21:41:34.683Z,51.91
2023-05-09T21:44:38.693Z,51.81
2023-05-09T21:47:42.598Z,52.78
2023-05-09T21:50:47.707Z,52.20
2023-05-09T21:53:51.180Z,52.00
2023-05-09T21:56:54.780Z,52.28
2023-05-09T22:00:01.709Z,52.40
2023-05-09T22:03:34.536Z,52.87
2023-05-09T22:06:41.856Z,52.59
2023-05-09T22:09:45.411Z,52.91
2023-05-09T22:12:49.069Z,52.61
2023-05-09T22:15:52.690Z,52.90
2023-05-09T22:18:56.211Z,53.13
2023-05-09T22:22:01.181Z,52.90
2023-05-09T22:25:05.491Z,52.40
2023-05-09T22:28:09.280Z,52.96
2023-05-09T22:31:12.823Z,53.03
2023-05-09T22:34:16.761Z,53.26
2023-05-09T22:37:21.786Z,53.68
2023-05-09T22:40:26.423Z,53.57
2023-05-09T22:43:38.678Z,53.82
2023-05-09T22:46:43.217Z,53.75
2023-05-09T22:49:47.006Z,54.70
2023-05-09T22:52:51.832Z,54.19
2023-05-09T22:55:55.919Z,54.63
2023-05-09T22:58:59.459Z,54.64
2023-05-09T23:02:03.084Z,55.30
2023-05-09T23:05:08.929Z,55.14
2023-05-09T23:08:13.902Z,55.39
2023-05-09T23:11:17.546Z,55.18
2023-05-09T23:14:21.080Z,56.44
2023-05-09T23:17:24.618Z,56.44
2023-05-09T23:20:28.307Z,56.26
2023-05-09T23:23:33.393Z,55.73
2023-05-09T23:26:37.181Z,56.15
2023-05-09T23:29:40.717Z,56.17
2023-05-09T23:32:44.455Z,55.94
2023-05-09T23:35:48.035Z,56.62
2023-05-09T23:38:52.863Z,56.33
2023-05-09T23:41:56.580Z,57.47
2023-05-09T23:45:00.549Z,56.07
2023-05-09T23:48:04.083Z,56.76
2023-05-09T23:51:07.806Z,56.78
2023-05-09T23:54:12.610Z,56.89
2023-05-09T23:57:16.163Z,57.09
